Thunder radar more information blitzortung!


avis per Pluja more information rain snow radar


Visita la nostra xarxa de llocs de meteo:

Template documentation
and downloads

And another site



Rain From: 15-11-2018 14:00 Until: 23:59 warning for: Rain Level: Orange info button

Pagina Historial Weather Underground text

Diari Resum Setembre 6, 2017 Unitats:  Mètric    Imperial   Tant
« Previous Dia
SegĂźent Dia »
Diari Setmana Mensual Anual Personalitzada
  Maxima: Minima: Media:
Temperatura: -17.8 °C -7.1 °C -4.3 °C
Punt de rosada: -17.8 °C -11.5 °C -7.7 °C
Humitat: Humidity % 53 % 69 %
Wind Speed: 0 km/h 0 km/h 8.5 km/h
RĂ fegues de vent: 0 km/h - -
Vent:- - South
Pression baro: 0 hPa 34395 hPa -
Precipitacions: 0 mm    
Historical Graphs
 
 
Dades de taula per Setembre 6, 2017
Temps Temperatura Punt de rosada Pression baro Vent Wind Speed RĂ fegues de vent Humitat Rainfall Rate (Hourly)
-17.8 °C -17.8 °C 0 hPa Calm     Humidity % 0 mm
00:00 -6.2 °C -7.6 °C 34533.8 hPa SW 2.6 km/h 2.6 km/h 86 % 0 mm
00:02 -5.2 °C -7.8 °C 34533.8 hPa WSW 6 km/h 6 km/h 75 % 0 mm
00:10 -6.2 °C -7.6 °C 34533.8 hPa Calm   5.1 km/h 86 % 0 mm
00:20 -6.4 °C -7.7 °C 34533.8 hPa ESE 2.6 km/h 5.1 km/h 86 % 0 mm
00:30 -6.4 °C -7.8 °C 34533.8 hPa SSW 2.6 km/h 5.1 km/h 86 % 0 mm
00:40 -6.6 °C -8.1 °C 34533.8 hPa SW 5.1 km/h 7.7 km/h 85 % 0 mm
00:50 -6.7 °C -8 °C 34533.8 hPa Calm   7.7 km/h 86 % 0 mm
01:00 -6.7 °C -7.9 °C 34533.8 hPa Calm     87 % 0 mm
01:10 -6.7 °C -7.9 °C 34533.8 hPa Calm   2.6 km/h 87 % 0 mm
01:20 -6.7 °C -7.9 °C 34533.8 hPa Calm     87 % 0 mm
01:30 -6.8 °C -8 °C 34496.6 hPa NNE 2.6 km/h 2.6 km/h 87 % 0 mm
01:40 -6.8 °C -7.9 °C 34533.8 hPa Calm     88 % 0 mm
01:50 -6.8 °C -7.9 °C 34533.8 hPa Calm     88 % 0 mm
02:00 -6.8 °C -7.9 °C 34533.8 hPa Calm     88 % 0 mm
02:10 -6.8 °C -7.9 °C 34496.6 hPa Calm   2.6 km/h 88 % 0 mm
02:20 -6.8 °C -7.9 °C 34496.6 hPa Calm     88 % 0 mm
02:30 -7 °C -8.2 °C 34533.8 hPa Calm   5.1 km/h 88 % 0 mm
02:40 -6.9 °C -8.1 °C 34533.8 hPa Calm     88 % 0 mm
02:50 -6.9 °C -8.1 °C 34533.8 hPa Calm   2.6 km/h 88 % 0 mm
03:00 -7.1 °C -8.2 °C 34496.6 hPa Calm   5.1 km/h 88 % 0 mm
03:10 -7.1 °C -8.2 °C 34496.6 hPa Calm   5.1 km/h 88 % 0 mm
03:20 -7.1 °C -8.3 °C 34496.6 hPa SW 5.1 km/h 7.7 km/h 87 % 0 mm
03:30 -7.1 °C -8.2 °C 34533.8 hPa Calm   7.7 km/h 88 % 0 mm
03:40 -7.1 °C -8.2 °C 34533.8 hPa SW 2.6 km/h 5.1 km/h 88 % 0 mm
03:50 -6.9 °C -8 °C 34533.8 hPa SW 2.6 km/h 5.1 km/h 88 % 0 mm
04:00 -6.3 °C -7.4 °C 34533.8 hPa Calm   2.6 km/h 88 % 0 mm
04:10 -6.3 °C -7.6 °C 34533.8 hPa SW 2.6 km/h 5.1 km/h 86 % 0 mm
04:20 -6.1 °C -7.7 °C 34533.8 hPa SW 2.6 km/h 5.1 km/h 84 % 0 mm
04:30 -5.6 °C -7.3 °C 34533.8 hPa Calm   5.1 km/h 83 % 0 mm
04:40 -5.2 °C -7 °C 34533.8 hPa Calm   5.1 km/h 82 % 0 mm
04:50 -4.5 °C -6.6 °C 34533.8 hPa ENE 2.6 km/h 5.1 km/h 79 % 0 mm
09:54 -4.8 °C -7.2 °C 34533.8 hPa East 6 km/h 6 km/h 77 % 0 mm
09:55 -4.8 °C -7.2 °C 34533.8 hPa East 6 km/h 6 km/h 77 % 0 mm
10:00 -4.7 °C -7.1 °C 34533.8 hPa SSE 8.5 km/h 8.5 km/h 77 % 0 mm
10:05 -4.7 °C -7.1 °C 34533.8 hPa SW 6 km/h 6 km/h 77 % 0 mm
10:10 -4.7 °C -7.1 °C 34533.8 hPa SE 3.1 km/h 3.1 km/h 77 % 0 mm
10:15 -4.6 °C -7.1 °C 34533.8 hPa SW 6 km/h 6 km/h 76 % 0 mm
10:20 -4.4 °C -7.1 °C 34533.8 hPa South 11.9 km/h 11.9 km/h 75 % 0 mm
10:25 -4.3 °C -6.9 °C 34567.7 hPa South 9.8 km/h 9.8 km/h 75 % 0 mm
10:30 -4.4 °C -7.1 °C 34567.7 hPa ENE 3.1 km/h 3.1 km/h 74 % 0 mm
10:35 -4.4 °C -7.2 °C 34567.7 hPa ESE 7.6 km/h 7.6 km/h 74 % 0 mm
10:36 -4.4 °C -7.2 °C 34567.7 hPa SE 6 km/h 6 km/h 74 % 0 mm
10:41 -4.6 °C -7.3 °C 34533.8 hPa WSW 6 km/h 6 km/h 74 % 0 mm
10:46 -4.6 °C -7.3 °C 34533.8 hPa SW 9 km/h 9 km/h 74 % 0 mm
10:51 -4.4 °C -7.4 °C 34533.8 hPa SSE 9 km/h 9 km/h 72 % 0 mm
10:56 -4.2 °C -7.1 °C 34567.7 hPa SW 3.1 km/h 3.1 km/h 73 % 0 mm
11:01 -4.1 °C -7.1 °C 34567.7 hPa SW 3.1 km/h 3.1 km/h 72 % 0 mm
11:06 -4.1 °C -7.2 °C 34567.7 hPa South 11.9 km/h 11.9 km/h 71 % 0 mm
11:11 -4.1 °C -7.2 °C 34567.7 hPa SW 3.1 km/h   71 % 0 mm
11:16 -3.9 °C -7.1 °C 34567.7 hPa NNE 6.3 km/h 6.3 km/h 71 % 0 mm
11:21 -4 °C -7.1 °C 34567.7 hPa NE 6 km/h 6 km/h 71 % 0 mm
11:26 -4.1 °C -7.2 °C 34533.8 hPa SW 11.9 km/h 11.9 km/h 71 % 0 mm
11:31 -3.9 °C -7.2 °C 34533.8 hPa SW 7.6 km/h 7.6 km/h 70 % 0 mm
11:36 -3.9 °C -7.4 °C 34533.8 hPa SSE 11.9 km/h 11.9 km/h 68 % 0 mm
11:41 -3.7 °C -7.4 °C 34533.8 hPa ENE 6.3 km/h   67 % 0 mm
11:46 -3.7 °C -7.5 °C 34533.8 hPa ESE 9 km/h 9 km/h 66 % 0 mm
11:51 -3.6 °C -7.3 °C 34533.8 hPa NE 9 km/h 9 km/h 67 % 0 mm
11:56 -3.6 °C -7.4 °C 34567.7 hPa NNE 7.6 km/h 7.6 km/h 66 % 0 mm
12:01 -3.4 °C -7.4 °C 34567.7 hPa SSE 11.9 km/h 11.9 km/h 65 % 0 mm
12:06 -3.1 °C -6.9 °C 34567.7 hPa NNE 6 km/h 6 km/h 66 % 0 mm
12:11 -2.8 °C -6.9 °C 34533.8 hPa SW 9 km/h 9 km/h 64 % 0 mm
12:16 -2.8 °C -6.8 °C 34533.8 hPa WSW 9 km/h 9 km/h 65 % 0 mm
12:21 -2.7 °C -7.1 °C 34533.8 hPa SSE 9 km/h 9 km/h 62 % 0 mm
12:26 -2.7 °C -7.1 °C 34496.6 hPa SW 9.8 km/h 9.8 km/h 62 % 0 mm
12:31 -2.7 °C -7.1 °C 34496.6 hPa WSW 11.1 km/h 11.1 km/h 62 % 0 mm
12:36 -2.9 °C -7.3 °C 34496.6 hPa South 6 km/h 6 km/h 62 % 0 mm
12:41 -2.9 °C -7.1 °C 34533.8 hPa WSW 9.8 km/h 9.8 km/h 63 % 0 mm
12:46 -2.8 °C -7.3 °C 34533.8 hPa West 9 km/h 9 km/h 61 % 0 mm
12:51 -2.8 °C -7.4 °C 34533.8 hPa SW 15 km/h 15 km/h 60 % 0 mm
12:56 -2.4 °C -7.3 °C 34533.8 hPa SSE 6 km/h 6 km/h 59 % 0 mm
13:01 -2.4 °C -7.6 °C 34533.8 hPa East 15 km/h 15 km/h 57 % 0 mm
13:06 -2.4 °C -7.6 °C 34533.8 hPa East 11.9 km/h 11.9 km/h 57 % 0 mm
13:11 -2.3 °C -7.5 °C 34533.8 hPa East 9 km/h 9 km/h 57 % 0 mm
13:21 -2.4 °C -8 °C 34533.8 hPa ESE 15 km/h 15 km/h 54 % 0 mm
13:26 -2.7 °C -7.8 °C 34496.6 hPa NE 6 km/h 6 km/h 57 % 0 mm
13:31 -2.6 °C -7.6 °C 34496.6 hPa North 3.1 km/h 3.7 km/h 58 % 0 mm
13:36 -2.6 °C -7.9 °C 34496.6 hPa East 15 km/h 15 km/h 56 % 0 mm
13:46 -2.8 °C -7.7 °C 34496.6 hPa ENE 15.6 km/h 15.6 km/h 58 % 0 mm
13:51 -2.6 °C -7.4 °C 34496.6 hPa ESE 17.9 km/h 17.9 km/h 59 % 0 mm
13:56 -2.7 °C -7.7 °C 34496.6 hPa North 15 km/h 15 km/h 58 % 0 mm
14:01 -2.8 °C -7.5 °C 34496.6 hPa East 17.9 km/h 17.9 km/h 60 % 0 mm
14:06 -2.9 °C -7.4 °C 34496.6 hPa WSW 9 km/h 9 km/h 61 % 0 mm
14:11 -2.6 °C -7.4 °C 34496.6 hPa SE 7.6 km/h 7.6 km/h 59 % 0 mm
14:16 -2.2 °C -7.3 °C 34496.6 hPa SSE 9 km/h 9 km/h 58 % 0 mm
14:21 -2.4 °C -7.4 °C 34496.6 hPa ESE 15.3 km/h 15.3 km/h 58 % 0 mm
14:26 -2.5 °C -7.5 °C 34462.7 hPa SSE 6.8 km/h 6.8 km/h 58 % 0 mm
14:31 -2.6 °C -7.6 °C 34462.7 hPa SSE 9 km/h 9 km/h 58 % 0 mm
14:36 -2.8 °C -7.4 °C 34462.7 hPa ESE 20.9 km/h 20.9 km/h 60 % 0 mm
14:41 -2.9 °C -7.4 °C 34496.6 hPa ESE 15.6 km/h 15.6 km/h 61 % 0 mm
14:46 -2.8 °C -7.4 °C 34496.6 hPa SE 16.1 km/h 16.1 km/h 60 % 0 mm
14:51 -2.9 °C -7.4 °C 34496.6 hPa ESE 23.8 km/h 23.8 km/h 61 % 0 mm
14:56 -3.2 °C -7.6 °C 34462.7 hPa ESE 26.9 km/h 26.9 km/h 62 % 0 mm
15:01 -3.1 °C -7.4 °C 34462.7 hPa ESE 19.6 km/h 19.6 km/h 62 % 0 mm
15:06 -3.1 °C -7.4 °C 34462.7 hPa ENE 26.9 km/h 26.9 km/h 62 % 0 mm
15:11 -3.2 °C -7.6 °C 34462.7 hPa ENE 26.9 km/h 26.9 km/h 62 % 0 mm
15:16 -3.1 °C -7.4 °C 34462.7 hPa SE 19.2 km/h 19.2 km/h 62 % 0 mm
15:21 -3.1 °C -7.6 °C 34462.7 hPa East 17.9 km/h 17.9 km/h 61 % 0 mm
15:26 -3.1 °C -7.6 °C 34462.7 hPa East 17.9 km/h 17.9 km/h 61 % 0 mm
15:31 -3.1 °C -7.6 °C 34462.7 hPa SE 17.9 km/h 17.9 km/h 61 % 0 mm
15:36 -3.1 °C -7.6 °C 34462.7 hPa ESE 15.3 km/h 15.3 km/h 61 % 0 mm
15:41 -2.7 °C -7.4 °C 34428.8 hPa East 11.9 km/h 11.9 km/h 60 % 0 mm
15:46 -2.4 °C -7.3 °C 34428.8 hPa SE 7.6 km/h 7.6 km/h 59 % 0 mm
15:51 -2.2 °C -7.2 °C 34428.8 hPa SSW 14 km/h 14 km/h 58 % 0 mm
15:56 -2.3 °C -7.5 °C 34462.7 hPa East 11.9 km/h 11.9 km/h 57 % 0 mm
16:01 -2.2 °C -7.2 °C 34462.7 hPa SSW 6 km/h 6 km/h 58 % 0 mm
16:06 -1.8 °C -7.1 °C 34462.7 hPa SW 9 km/h 9 km/h 57 % 0 mm
16:11 -1.7 °C -7.1 °C 34428.8 hPa SSE 11.9 km/h 11.9 km/h 56 % 0 mm
16:12 -1.6 °C -7.1 °C 34428.8 hPa SW 11.1 km/h 11.1 km/h 55 % 0 mm
16:17 -1.4 °C -7 °C 34428.8 hPa SE 15 km/h 15 km/h 55 % 0 mm
16:22 -1.7 °C -7.4 °C 34462.7 hPa WSW 9 km/h 9 km/h 54 % 0 mm
16:27 -1.9 °C -7.4 °C 34462.7 hPa SW 16.6 km/h 16.6 km/h 55 % 0 mm
16:32 -1.7 °C -7.3 °C 34462.7 hPa SSW 15 km/h 15 km/h 55 % 0 mm
16:33 -1.7 °C -7.3 °C 34462.7 hPa ESE 15 km/h 15 km/h 55 % 0 mm
16:38 -1.5 °C -7.2 °C 34428.8 hPa West 12.2 km/h 12.2 km/h 54 % 0 mm
16:43 -1.4 °C -7.3 °C 34428.8 hPa SSW 12.7 km/h 12.7 km/h 53 % 0 mm
16:48 -1.2 °C -7.1 °C 34428.8 hPa West 16.1 km/h 16.1 km/h 53 % 0 mm
16:53 -1.4 °C -7.3 °C 34428.8 hPa West 23.8 km/h 23.8 km/h 53 % 0 mm
16:58 -1.8 °C -7.4 °C 34428.8 hPa SW 11.9 km/h 11.9 km/h 54 % 0 mm
17:03 -1.9 °C -7.6 °C 34428.8 hPa SW 17.9 km/h 17.9 km/h 54 % 0 mm
17:08 -2 °C -7.7 °C 34428.8 hPa SSE 11.9 km/h 11.9 km/h 54 % 0 mm
17:18 -2.1 °C -7.8 °C 34428.8 hPa WSW 27.7 km/h 27.7 km/h 54 % 0 mm
17:23 -2.3 °C -7.8 °C 34395 hPa SSW 20.9 km/h 20.9 km/h 55 % 0 mm
17:28 -2.6 °C -7.9 °C 34395 hPa South 23.8 km/h 23.8 km/h 56 % 0 mm
17:33 -2.8 °C -8.1 °C 34395 hPa South 17.9 km/h 17.9 km/h 56 % 0 mm
17:38 -2.8 °C -8.1 °C 34395 hPa WSW 17.9 km/h 17.9 km/h 56 % 0 mm
17:43 -2.7 °C -7.9 °C 34395 hPa South 11.1 km/h 11.1 km/h 57 % 0 mm
17:48 -2.9 °C -7.9 °C 34395 hPa WSW 17.9 km/h 17.9 km/h 58 % 0 mm
17:53 -2.9 °C -7.9 °C 34395 hPa SW 15 km/h 15 km/h 58 % 0 mm
17:58 -2.9 °C -7.8 °C 34395 hPa SSW 15 km/h 15 km/h 59 % 0 mm
18:03 -2.9 °C -7.8 °C 34395 hPa SW 23.8 km/h 23.8 km/h 59 % 0 mm
18:08 -3.1 °C -7.7 °C 34428.8 hPa South 11.9 km/h 11.9 km/h 60 % 0 mm
18:13 -3.1 °C -7.8 °C 34428.8 hPa SSW 17.9 km/h 17.9 km/h 60 % 0 mm
18:18 -3.1 °C -7.8 °C 34428.8 hPa SW 7.6 km/h 7.6 km/h 60 % 0 mm
18:19 -3.1 °C -7.8 °C 34428.8 hPa SW 17.9 km/h 17.9 km/h 60 % 0 mm
18:24 -3.2 °C -7.9 °C 34395 hPa WSW 17.9 km/h 17.9 km/h 60 % 0 mm
18:29 -3.3 °C -7.8 °C 34395 hPa SSW 17.9 km/h 17.9 km/h 61 % 0 mm
18:34 -3.4 °C -7.9 °C 34395 hPa SW 20.9 km/h 20.9 km/h 61 % 0 mm
18:39 -3.4 °C -7.7 °C 34428.8 hPa ESE 9 km/h 9 km/h 62 % 0 mm
18:44 -3.3 °C -7.7 °C 34428.8 hPa SW 3.1 km/h 3.7 km/h 62 % 0 mm
18:49 -3.2 °C -7.7 °C 34428.8 hPa SW 35.7 km/h 35.7 km/h 61 % 0 mm
18:54 -3.3 °C -7.7 °C 34428.8 hPa West 18.3 km/h 18.3 km/h 62 % 0 mm
18:59 -3.5 °C -7.8 °C 34428.8 hPa South 11.9 km/h 11.9 km/h 62 % 0 mm
19:04 -3.6 °C -7.9 °C 34428.8 hPa SW 15 km/h 15 km/h 62 % 0 mm
19:09 -3.7 °C -8 °C 34428.8 hPa SW 20.9 km/h 20.9 km/h 62 % 0 mm
19:10 -5.1 °C -7.3 °C 34462.7 hPa Calm     78 % 0 mm
19:14 -3.8 °C -7.9 °C 34428.8 hPa South 17.9 km/h 17.9 km/h 63 % 0 mm
19:19 -3.8 °C -7.9 °C 34428.8 hPa SSW 9 km/h 9 km/h 63 % 0 mm
19:24 -3.8 °C -7.9 °C 34428.8 hPa South 11.9 km/h 11.9 km/h 64 % 0 mm
19:29 -3.9 °C -7.9 °C 34428.8 hPa SSW 17.9 km/h 17.9 km/h 64 % 0 mm
19:30 -5.2 °C -7.4 °C 34462.7 hPa Calm     78 % 0 mm
19:34 -3.9 °C -7.8 °C 34428.8 hPa South 15 km/h 15 km/h 65 % 0 mm
19:39 -4 °C -7.9 °C 34462.7 hPa SW 9 km/h 9 km/h 65 % 0 mm
19:40 -5.2 °C -7.3 °C 34462.7 hPa Calm     79 % 0 mm
19:44 -4.1 °C -7.9 °C 34462.7 hPa SW 15 km/h 15 km/h 66 % 0 mm
19:45 -5.2 °C -7.3 °C 34462.7 hPa Calm     79 % 0 mm
19:49 -4.2 °C -7.9 °C 34462.7 hPa WSW 9.8 km/h 9.8 km/h 66 % 0 mm
19:54 -4.2 °C -7.8 °C 34462.7 hPa West 9 km/h 9 km/h 67 % 0 mm
19:55 -5.2 °C -7.3 °C 34462.7 hPa Calm   2.6 km/h 79 % 0 mm
19:59 -4.3 °C -8 °C 34462.7 hPa West 16.1 km/h 16.1 km/h 66 % 0 mm
20:04 -4.3 °C -7.9 °C 34462.7 hPa SSW 6 km/h 6 km/h 67 % 0 mm
20:05 -5.2 °C -7.3 °C 34462.7 hPa Calm     79 % 0 mm
20:09 -4.4 °C -8 °C 34462.7 hPa WSW 6 km/h 6 km/h 67 % 0 mm
20:14 -4.4 °C -8 °C 34462.7 hPa SSW 9 km/h 9 km/h 67 % 0 mm
20:15 -5.3 °C -7.4 °C 34462.7 hPa Calm     79 % 0 mm
20:19 -4.4 °C -7.9 °C 34462.7 hPa WSW 4.2 km/h   68 % 0 mm
20:24 -4.4 °C -7.9 °C 34462.7 hPa SSE 6.3 km/h 6.3 km/h 68 % 0 mm
20:25 -5.4 °C -7.4 °C 34462.7 hPa Calm     80 % 0 mm
20:29 -4.4 °C -7.9 °C 34462.7 hPa SW 9 km/h 9 km/h 68 % 0 mm
20:34 -4.4 °C -7.9 °C 34462.7 hPa SW 6 km/h 6 km/h 68 % 0 mm
20:35 -5.5 °C -7.5 °C 34462.7 hPa NNW 2.6 km/h 5.1 km/h 80 % 0 mm
20:39 -4.4 °C -7.9 °C 34462.7 hPa South 9 km/h 9 km/h 68 % 0 mm
20:44 -4.4 °C -7.9 °C 34462.7 hPa SW 6.3 km/h 6.3 km/h 68 % 0 mm
20:45 -5.6 °C -7.6 °C 34462.7 hPa NNE 2.6 km/h 5.1 km/h 80 % 0 mm
20:49 -4.4 °C -7.9 °C 34462.7 hPa SSW 9 km/h 9 km/h 68 % 0 mm
20:54 -4.5 °C -7.7 °C 34462.7 hPa SSW 3.1 km/h 3.1 km/h 70 % 0 mm
20:55 -5.6 °C -7.6 °C 34462.7 hPa Calm   2.6 km/h 80 % 0 mm
20:59 -4.6 °C -7.9 °C 34462.7 hPa South 9 km/h 9 km/h 69 % 0 mm
21:04 -4.6 °C -7.8 °C 34462.7 hPa WSW 9 km/h 9 km/h 70 % 0 mm
21:05 -5.6 °C -7.3 °C 34462.7 hPa ENE 2.6 km/h 5.1 km/h 82 % 0 mm
21:09 -4.7 °C -7.9 °C 34462.7 hPa SW 11.9 km/h 11.9 km/h 70 % 0 mm
21:14 -4.7 °C -7.9 °C 34462.7 hPa WSW 6 km/h 6 km/h 70 % 0 mm
21:15 -5.6 °C -7.5 °C 34462.7 hPa ENE 2.6 km/h 5.1 km/h 81 % 0 mm
21:19 -4.7 °C -7.9 °C 34462.7 hPa SW 6.3 km/h 6.3 km/h 70 % 0 mm
21:24 -4.7 °C -7.7 °C 34462.7 hPa SW 5.1 km/h 5.1 km/h 71 % 0 mm
21:25 -5.7 °C -7.4 °C 34462.7 hPa East 5.1 km/h 5.1 km/h 82 % 0 mm
21:29 -4.7 °C -7.7 °C 34462.7 hPa WSW 6 km/h 6 km/h 71 % 0 mm
21:34 -4.7 °C -7.8 °C 34462.7 hPa SW 6.3 km/h 6.3 km/h 71 % 0 mm
21:35 -5.8 °C -7.4 °C 34462.7 hPa East 2.6 km/h 7.7 km/h 83 % 0 mm
21:39 -4.8 °C -7.9 °C 34462.7 hPa SW 7.6 km/h 7.6 km/h 71 % 0 mm
21:44 -4.8 °C -7.9 °C 34462.7 hPa WSW 9 km/h 9 km/h 71 % 0 mm
21:45 -5.9 °C -7.7 °C 34462.7 hPa ENE 7.7 km/h 10.3 km/h 82 % 0 mm
21:49 -4.8 °C -7.8 °C 34462.7 hPa WSW 9 km/h 9 km/h 72 % 0 mm
21:54 -4.8 °C -7.8 °C 34462.7 hPa SW 4.2 km/h 4.2 km/h 72 % 0 mm
21:55 -6.1 °C -7.8 °C 34462.7 hPa ENE 5.1 km/h 7.7 km/h 83 % 0 mm
21:59 -4.9 °C -7.7 °C 34462.7 hPa SW 5.6 km/h 5.6 km/h 73 % 0 mm
22:04 -4.9 °C -7.8 °C 34462.7 hPa SW 3.1 km/h   73 % 0 mm
22:05 -6.1 °C -7.8 °C 34462.7 hPa NE 2.6 km/h 7.7 km/h 83 % 0 mm
22:09 -4.9 °C -7.8 °C 34462.7 hPa Calm     73 % 0 mm
22:14 -5 °C -7.8 °C 34462.7 hPa SW 6.8 km/h 6.8 km/h 73 % 0 mm
22:15 -6.1 °C -7.8 °C 34462.7 hPa NNE 2.6 km/h 5.1 km/h 83 % 0 mm
22:19 -5 °C -7.8 °C 34462.7 hPa SW 3.1 km/h   73 % 0 mm
22:24 -5.1 °C -7.8 °C 34462.7 hPa SW 3.1 km/h   74 % 0 mm
22:25 -6.1 °C -7.8 °C 34462.7 hPa NE 2.6 km/h 5.1 km/h 83 % 0 mm
22:29 -5.1 °C -7.8 °C 34462.7 hPa SW 9 km/h 9 km/h 74 % 0 mm
22:34 -5.1 °C -7.8 °C 34462.7 hPa SW 3.1 km/h 3.1 km/h 74 % 0 mm
22:35 -6.1 °C -7.7 °C 34462.7 hPa NE 2.6 km/h 5.1 km/h 84 % 0 mm
22:39 -5.2 °C -7.9 °C 34462.7 hPa SW 3.1 km/h 3.1 km/h 74 % 0 mm
22:44 -5.2 °C -7.9 °C 34462.7 hPa WSW 6 km/h 6 km/h 74 % 0 mm
22:45 -6.2 °C -8 °C 34462.7 hPa North 2.6 km/h 5.1 km/h 82 % 0 mm
22:49 -5.2 °C -7.8 °C 34462.7 hPa WSW 6 km/h 6 km/h 75 % 0 mm
22:55 -6.4 °C -8.9 °C 34462.7 hPa NW 5.1 km/h 7.7 km/h 75 % 0 mm
22:59 -5.2 °C -7.8 °C 34462.7 hPa WSW 3.1 km/h   75 % 0 mm
23:04 -5.2 °C -7.7 °C 34462.7 hPa WSW 3.1 km/h 3.1 km/h 76 % 0 mm
23:05 -6.3 °C -9.7 °C 34462.7 hPa WNW 5.1 km/h 7.7 km/h 68 % 0 mm
23:09 -5.2 °C -7.7 °C 34462.7 hPa WSW 6 km/h 6 km/h 76 % 0 mm
23:14 -5.2 °C -7.7 °C 34462.7 hPa SW 3.1 km/h 3.1 km/h 76 % 0 mm
23:15 -6.4 °C -10.2 °C 34428.8 hPa West 5.1 km/h 7.7 km/h 65 % 0 mm
23:19 -5.2 °C -7.7 °C 34462.7 hPa SW 3.1 km/h   76 % 0 mm
23:24 -5.1 °C -7.6 °C 34428.8 hPa SW 9 km/h 9 km/h 76 % 0 mm
23:25 -6.6 °C -10.6 °C 34428.8 hPa West 2.6 km/h 2.6 km/h 63 % 0 mm
23:29 -5.1 °C -7.4 °C 34428.8 hPa SW 7.6 km/h 7.6 km/h 77 % 0 mm
23:34 -5.1 °C -7.6 °C 34428.8 hPa West 8.5 km/h 8.5 km/h 76 % 0 mm
23:35 -6.7 °C -10.9 °C 34428.8 hPa NW 2.6 km/h 7.7 km/h 62 % 0 mm
23:39 -5.1 °C -7.4 °C 34462.7 hPa West 6 km/h 6 km/h 77 % 0 mm
23:44 -5.1 °C -7.4 °C 34462.7 hPa SW 6 km/h 6 km/h 77 % 0 mm
23:45 -6.9 °C -11.2 °C 34395 hPa West 5.1 km/h 10.3 km/h 61 % 0 mm
23:49 -5.1 °C -7.4 °C 34462.7 hPa WSW 6 km/h 6 km/h 77 % 0 mm
23:54 -5.1 °C -7.4 °C 34462.7 hPa SW 4.2 km/h 4.2 km/h 77 % 0 mm
23:55 -7.1 °C -11.5 °C 34395 hPa West 2.6 km/h 10.3 km/h 60 % 0 mm
23:59 -5.1 °C -7.4 °C 34462.7 hPa WSW 6 km/h 6 km/h 77 % 0 mm
Meteo Sesrovires
Elogis d' Weather Underground - 1.5 mb

Guio original per  Jim McMurry - jmcmurry@mwt.net Adaptat per a la plantilla per  Wim van der Kuil - Leuven-Template.eu

Trobareu la nostra informacio del temps tambe a:

Weather Underground

AWEKAS